sensor_id;sensor_type;location;lat;lon;timestamp;pressure;altitude;pressure_sealevel;temperature;humidity
49945;BME280;35838;49.134;9.212;2023-12-07T00:01:15;100260.66;;;3.74;100.00
49945;BME280;35838;49.134;9.212;2023-12-07T00:02:49;100259.00;;;3.76;100.00
49945;BME280;35838;49.134;9.212;2023-12-07T00:04:23;100268.41;;;3.76;100.00
49945;BME280;35838;49.134;9.212;2023-12-07T00:05:56;100266.81;;;3.81;100.00
49945;BME280;35838;49.134;9.212;2023-12-07T00:07:27;100260.66;;;3.74;100.00
49945;BME280;35838;49.134;9.212;2023-12-07T00:09:01;100269.09;;;3.70;100.00
49945;BME280;35838;49.134;9.212;2023-12-07T00:10:34;100264.06;;;3.73;100.00
49945;BME280;35838;49.134;9.212;2023-12-07T00:12:06;100270.84;;;3.71;100.00
49945;BME280;35838;49.134;9.212;2023-12-07T00:13:39;100261.53;;;3.75;100.00
49945;BME280;35838;49.134;9.212;2023-12-07T00:15:10;100269.19;;;3.73;100.00
49945;BME280;35838;49.134;9.212;2023-12-07T00:16:44;100264.13;;;3.76;100.00
49945;BME280;35838;49.134;9.212;2023-12-07T00:18:15;100267.50;;;3.75;100.00
49945;BME280;35838;49.134;9.212;2023-12-07T00:19:52;100266.63;;;3.73;100.00
49945;BME280;35838;49.134;9.212;2023-12-07T00:21:24;100263.97;;;3.70;100.00
49945;BME280;35838;49.134;9.212;2023-12-07T00:22:58;100269.06;;;3.69;100.00
49945;BME280;35838;49.134;9.212;2023-12-07T00:24:29;100264.06;;;3.73;100.00
49945;BME280;35838;49.134;9.212;2023-12-07T00:26:03;100271.75;;;3.73;100.00
49945;BME280;35838;49.134;9.212;2023-12-07T00:27:34;100270.03;;;3.74;100.00
49945;BME280;35838;49.134;9.212;2023-12-07T00:29:08;100271.69;;;3.72;100.00
49945;BME280;35838;49.134;9.212;2023-12-07T00:30:39;100269.41;;;3.81;100.00
49945;BME280;35838;49.134;9.212;2023-12-07T00:32:12;100270.22;;;3.80;100.00
49945;BME280;35838;49.134;9.212;2023-12-07T00:33:43;100271.00;;;3.78;100.00
49945;BME280;35838;49.134;9.212;2023-12-07T00:35:20;100268.47;;;3.79;100.00
49945;BME280;35838;49.134;9.212;2023-12-07T00:36:53;100274.50;;;3.80;100.00
49945;BME280;35838;49.134;9.212;2023-12-07T00:38:26;100272.75;;;3.79;100.00
49945;BME280;35838;49.134;9.212;2023-12-07T00:39:57;100278.06;;;3.85;100.00
49945;BME280;35838;49.134;9.212;2023-12-07T00:41:31;100277.09;;;3.81;100.00
49945;BME280;35838;49.134;9.212;2023-12-07T00:43:05;100277.19;;;3.84;100.00
49945;BME280;35838;49.134;9.212;2023-12-07T00:44:38;100282.19;;;3.80;100.00
49945;BME280;35838;49.134;9.212;2023-12-07T00:46:12;100275.22;;;3.75;100.00
49945;BME280;35838;49.134;9.212;2023-12-07T00:47:43;100278.72;;;3.78;100.00
49945;BME280;35838;49.134;9.212;2023-12-07T00:49:17;100281.28;;;3.78;100.00
49945;BME280;35838;49.134;9.212;2023-12-07T00:50:53;100280.41;;;3.77;100.00
49945;BME280;35838;49.134;9.212;2023-12-07T00:52:24;100280.31;;;3.74;100.00
49945;BME280;35838;49.134;9.212;2023-12-07T00:53:58;100281.22;;;3.74;100.00
49945;BME280;35838;49.134;9.212;2023-12-07T00:55:29;100286.44;;;3.79;100.00
49945;BME280;35838;49.134;9.212;2023-12-07T00:57:02;100286.56;;;3.82;100.00
49945;BME280;35838;49.134;9.212;2023-12-07T00:58:34;100291.66;;;3.81;100.00
49945;BME280;35838;49.134;9.212;2023-12-07T01:00:09;100288.16;;;3.79;100.00
49945;BME280;35838;49.134;9.212;2023-12-07T01:01:41;100282.16;;;3.78;100.00
49945;BME280;35838;49.134;9.212;2023-12-07T01:03:14;100290.59;;;3.74;100.00
49945;BME280;35838;49.134;9.212;2023-12-07T01:04:48;100296.69;;;3.78;100.00
49945;BME280;35838;49.134;9.212;2023-12-07T01:06:21;100296.69;;;3.78;100.00
49945;BME280;35838;49.134;9.212;2023-12-07T01:07:55;100295.81;;;3.77;100.00
49945;BME280;35838;49.134;9.212;2023-12-07T01:09:26;100298.31;;;3.75;100.00
49945;BME280;35838;49.134;9.212;2023-12-07T01:11:00;100299.13;;;3.73;100.00
49945;BME280;35838;49.134;9.212;2023-12-07T01:12:31;100300.91;;;3.75;100.00
49945;BME280;35838;49.134;9.212;2023-12-07T01:14:06;100299.28;;;3.79;100.00
49945;BME280;35838;49.134;9.212;2023-12-07T01:15:37;100302.00;;;3.84;100.00
49945;BME280;35838;49.134;9.212;2023-12-07T01:17:10;100310.59;;;3.84;100.00
49945;BME280;35838;49.134;9.212;2023-12-07T01:18:42;100305.47;;;3.86;100.00
49945;BME280;35838;49.134;9.212;2023-12-07T01:20:15;100311.50;;;3.86;100.00
49945;BME280;35838;49.134;9.212;2023-12-07T01:21:50;100314.75;;;3.81;100.00
49945;BME280;35838;49.134;9.212;2023-12-07T01:23:23;100321.44;;;3.75;100.00
49945;BME280;35838;49.134;9.212;2023-12-07T01:24:54;100320.53;;;3.73;100.00
49945;BME280;35838;49.134;9.212;2023-12-07T01:26:28;100320.25;;;3.64;100.00
49945;BME280;35838;49.134;9.212;2023-12-07T01:27:59;100321.38;;;3.72;100.00
49945;BME280;35838;49.134;9.212;2023-12-07T01:29:33;100322.19;;;3.71;100.00
49945;BME280;35838;49.134;9.212;2023-12-07T01:31:04;100317.09;;;3.73;100.00
49945;BME280;35838;49.134;9.212;2023-12-07T01:32:37;100321.28;;;3.71;100.00
49945;BME280;35838;49.134;9.212;2023-12-07T01:34:08;100319.63;;;3.71;100.00
49945;BME280;35838;49.134;9.212;2023-12-07T01:35:42;100324.00;;;3.75;100.00
49945;BME280;35838;49.134;9.212;2023-12-07T01:37:16;100325.81;;;3.78;100.00
49945;BME280;35838;49.134;9.212;2023-12-07T01:38:49;100318.69;;;3.69;100.00
49945;BME280;35838;49.134;9.212;2023-12-07T01:40:20;100329.84;;;3.70;100.00
49945;BME280;35838;49.134;9.212;2023-12-07T01:41:54;100319.47;;;3.67;100.00
49945;BME280;35838;49.134;9.212;2023-12-07T01:43:25;100323.69;;;3.65;100.00
49945;BME280;35838;49.134;9.212;2023-12-07T01:44:59;100319.34;;;3.62;100.00
49945;BME280;35838;49.134;9.212;2023-12-07T01:46:30;100319.44;;;3.65;100.00
49945;BME280;35838;49.134;9.212;2023-12-07T01:48:04;100314.09;;;3.59;100.00
49945;BME280;35838;49.134;9.212;2023-12-07T01:49:37;100319.38;;;3.64;100.00
49945;BME280;35838;49.134;9.212;2023-12-07T01:51:09;100323.53;;;3.60;100.00
49945;BME280;35838;49.134;9.212;2023-12-07T01:52:47;100320.25;;;3.64;100.00
49945;BME280;35838;49.134;9.212;2023-12-07T01:54:18;100320.03;;;3.58;100.00
49945;BME280;35838;49.134;9.212;2023-12-07T01:55:52;100318.34;;;3.57;100.00
49945;BME280;35838;49.134;9.212;2023-12-07T01:57:24;100319.16;;;3.56;100.00
49945;BME280;35838;49.134;9.212;2023-12-07T01:58:58;100320.03;;;3.58;100.00
49945;BME280;35838;49.134;9.212;2023-12-07T02:00:29;100330.41;;;3.61;100.00
49945;BME280;35838;49.134;9.212;2023-12-07T02:02:03;100318.22;;;3.54;100.00
49945;BME280;35838;49.134;9.212;2023-12-07T02:03:34;100330.13;;;3.52;100.00
49945;BME280;35838;49.134;9.212;2023-12-07T02:05:07;100335.16;;;3.49;100.00
49945;BME280;35838;49.134;9.212;2023-12-07T02:06:38;100336.91;;;3.50;100.00
49945;BME280;35838;49.134;9.212;2023-12-07T02:08:15;100336.81;;;3.47;100.00
49945;BME280;35838;49.134;9.212;2023-12-07T02:09:48;100335.09;;;3.45;100.00
49945;BME280;35838;49.134;9.212;2023-12-07T02:11:20;100337.56;;;3.44;100.00
49945;BME280;35838;49.134;9.212;2023-12-07T02:12:53;100336.59;;;3.40;100.00
49945;BME280;35838;49.134;9.212;2023-12-07T02:14:25;100331.41;;;3.37;100.00
49945;BME280;35838;49.134;9.212;2023-12-07T02:15:58;100335.56;;;3.34;100.00
49945;BME280;35838;49.134;9.212;2023-12-07T02:17:33;100342.22;;;3.28;100.00
49945;BME280;35838;49.134;9.212;2023-12-07T02:19:10;100336.00;;;3.22;100.00
49945;BME280;35838;49.134;9.212;2023-12-07T02:20:48;100339.50;;;3.24;100.00
49945;BME280;35838;49.134;9.212;2023-12-07T02:22:25;100339.97;;;3.12;100.00
49945;BME280;35838;49.134;9.212;2023-12-07T02:24:01;100343.06;;;3.02;100.00
49945;BME280;35838;49.134;9.212;2023-12-07T02:25:36;100334.31;;;2.95;100.00
49945;BME280;35838;49.134;9.212;2023-12-07T02:27:10;100347.13;;;2.95;100.00
49945;BME280;35838;49.134;9.212;2023-12-07T02:28:44;100338.38;;;2.90;100.00
49945;BME280;35838;49.134;9.212;2023-12-07T02:30:15;100336.63;;;2.89;100.00
49945;BME280;35838;49.134;9.212;2023-12-07T02:31:49;100332.13;;;2.81;100.00
49945;BME280;35838;49.134;9.212;2023-12-07T02:33:20;100329.41;;;2.77;100.00
49945;BME280;35838;49.134;9.212;2023-12-07T02:34:53;100337.59;;;2.66;100.00
49945;BME280;35838;49.134;9.212;2023-12-07T02:36:25;100331.00;;;2.73;100.00
49945;BME280;35838;49.134;9.212;2023-12-07T02:38:00;100337.72;;;2.70;100.00
49945;BME280;35838;49.134;9.212;2023-12-07T02:39:31;100338.41;;;2.65;100.00
49945;BME280;35838;49.134;9.212;2023-12-07T02:41:05;100338.34;;;2.64;100.00
49945;BME280;35838;49.134;9.212;2023-12-07T02:42:40;100334.25;;;2.69;100.00
49945;BME280;35838;49.134;9.212;2023-12-07T02:44:14;100340.28;;;2.70;100.00
49945;BME280;35838;49.134;9.212;2023-12-07T02:45:45;100344.31;;;2.63;100.00
49945;BME280;35838;49.134;9.212;2023-12-07T02:47:19;100341.75;;;2.63;100.00
49945;BME280;35838;49.134;9.212;2023-12-07T02:48:50;100343.44;;;2.62;100.00
49945;BME280;35838;49.134;9.212;2023-12-07T02:50:23;100339.38;;;2.69;100.00
49945;BME280;35838;49.134;9.212;2023-12-07T02:51:55;100342.78;;;2.68;100.00
49945;BME280;35838;49.134;9.212;2023-12-07T02:53:28;100344.50;;;2.69;100.00
49945;BME280;35838;49.134;9.212;2023-12-07T02:54:59;100344.50;;;2.69;100.00
49945;BME280;35838;49.134;9.212;2023-12-07T02:56:33;100344.38;;;2.64;100.00
49945;BME280;35838;49.134;9.212;2023-12-07T02:58:06;100343.53;;;2.65;100.00
49945;BME280;35838;49.134;9.212;2023-12-07T02:59:40;100334.78;;;2.59;100.00
49945;BME280;35838;49.134;9.212;2023-12-07T03:01:11;100337.09;;;2.53;100.00
49945;BME280;35838;49.134;9.212;2023-12-07T03:02:45;100341.25;;;2.49;100.00
49945;BME280;35838;49.134;9.212;2023-12-07T03:04:18;100336.84;;;2.45;100.00
49945;BME280;35838;49.134;9.212;2023-12-07T03:05:49;100344.47;;;2.43;100.00
49945;BME280;35838;49.134;9.212;2023-12-07T03:07:23;100347.03;;;2.43;100.00
49945;BME280;35838;49.134;9.212;2023-12-07T03:08:54;100346.97;;;2.42;100.00
49945;BME280;35838;49.134;9.212;2023-12-07T03:10:27;100340.91;;;2.40;100.00
49945;BME280;35838;49.134;9.212;2023-12-07T03:11:58;100344.28;;;2.39;100.00
49945;BME280;35838;49.134;9.212;2023-12-07T03:13:35;100344.72;;;2.27;100.00
49945;BME280;35838;49.134;9.212;2023-12-07T03:15:06;100344.84;;;2.30;100.00
49945;BME280;35838;49.134;9.212;2023-12-07T03:16:40;100349.06;;;2.29;100.00
49945;BME280;35838;49.134;9.212;2023-12-07T03:18:14;100348.88;;;2.23;100.00
49945;BME280;35838;49.134;9.212;2023-12-07T03:19:45;100343.56;;;2.18;100.00
49945;BME280;35838;49.134;9.212;2023-12-07T03:21:19;100344.28;;;2.14;100.00
49945;BME280;35838;49.134;9.212;2023-12-07T03:22:50;100339.63;;;2.04;100.00
49945;BME280;35838;49.134;9.212;2023-12-07T03:24:23;100338.69;;;2.02;100.00
49945;BME280;35838;49.134;9.212;2023-12-07T03:25:54;100347.19;;;2.01;100.00
49945;BME280;35838;49.134;9.212;2023-12-07T03:27:28;100347.94;;;1.98;100.00
49945;BME280;35838;49.134;9.212;2023-12-07T03:29:02;100349.69;;;1.99;100.00
49945;BME280;35838;49.134;9.212;2023-12-07T03:30:35;100354.78;;;1.98;100.00
49945;BME280;35838;49.134;9.212;2023-12-07T03:32:06;100350.47;;;1.97;100.00
49945;BME280;35838;49.134;9.212;2023-12-07T03:33:40;100357.22;;;1.95;100.00
49945;BME280;35838;49.134;9.212;2023-12-07T03:35:11;100345.97;;;1.91;100.00
49945;BME280;35838;49.134;9.212;2023-12-07T03:36:45;100351.97;;;1.92;100.00
49945;BME280;35838;49.134;9.212;2023-12-07T03:38:16;100351.09;;;1.91;100.00
49945;BME280;35838;49.134;9.212;2023-12-07T03:39:50;100350.94;;;1.86;100.00
49945;BME280;35838;49.134;9.212;2023-12-07T03:41:21;100354.25;;;1.84;100.00
49945;BME280;35838;49.134;9.212;2023-12-07T03:42:54;100356.72;;;1.82;100.00
49945;BME280;35838;49.134;9.212;2023-12-07T03:44:28;100358.25;;;1.77;100.00
49945;BME280;35838;49.134;9.212;2023-12-07T03:46:03;100361.63;;;1.76;100.00
49945;BME280;35838;49.134;9.212;2023-12-07T03:47:34;100361.25;;;1.67;100.00
49945;BME280;35838;49.134;9.212;2023-12-07T03:49:08;100366.25;;;1.64;100.00
49945;BME280;35838;49.134;9.212;2023-12-07T03:50:39;100364.56;;;1.64;100.00
49945;BME280;35838;49.134;9.212;2023-12-07T03:52:12;100366.41;;;1.68;100.00
49945;BME280;35838;49.134;9.212;2023-12-07T03:53:43;100366.38;;;1.67;100.00
49945;BME280;35838;49.134;9.212;2023-12-07T03:55:17;100368.13;;;1.68;100.00
49945;BME280;35838;49.134;9.212;2023-12-07T03:56:48;100375.97;;;1.72;100.00
49945;BME280;35838;49.134;9.212;2023-12-07T03:58:22;100376.97;;;1.76;100.00
49945;BME280;35838;49.134;9.212;2023-12-07T03:59:55;100381.09;;;1.72;100.00
49945;BME280;35838;49.134;9.212;2023-12-07T04:01:29;100381.09;;;1.72;100.00
49945;BME280;35838;49.134;9.212;2023-12-07T04:03:00;100380.72;;;1.63;100.00
49945;BME280;35838;49.134;9.212;2023-12-07T04:04:34;100385.81;;;1.62;100.00
49945;BME280;35838;49.134;9.212;2023-12-07T04:06:05;100386.41;;;1.56;100.00
49945;BME280;35838;49.134;9.212;2023-12-07T04:07:39;100386.34;;;1.54;100.00
49945;BME280;35838;49.134;9.212;2023-12-07T04:09:13;100385.47;;;1.54;100.00
49945;BME280;35838;49.134;9.212;2023-12-07T04:10:44;100388.84;;;1.53;100.00
49945;BME280;35838;49.134;9.212;2023-12-07T04:12:17;100388.22;;;1.59;100.00
49945;BME280;35838;49.134;9.212;2023-12-07T04:13:48;100390.59;;;1.54;100.00
49945;BME280;35838;49.134;9.212;2023-12-07T04:15:24;100386.34;;;1.54;100.00
49945;BME280;35838;49.134;9.212;2023-12-07T04:16:58;100389.84;;;1.56;100.00
49945;BME280;35838;49.134;9.212;2023-12-07T04:18:29;100396.72;;;1.58;100.00
49945;BME280;35838;49.134;9.212;2023-12-07T04:20:04;100387.28;;;1.56;100.00
49945;BME280;35838;49.134;9.212;2023-12-07T04:21:35;100388.84;;;1.53;100.00
49945;BME280;35838;49.134;9.212;2023-12-07T04:23:09;100383.44;;;1.45;100.00
49945;BME280;35838;49.134;9.212;2023-12-07T04:24:42;100380.56;;;1.37;100.00
49945;BME280;35838;49.134;9.212;2023-12-07T04:26:13;100389.38;;;1.23;100.00
49945;BME280;35838;49.134;9.212;2023-12-07T04:27:48;100390.34;;;1.27;100.00
49945;BME280;35838;49.134;9.212;2023-12-07T04:29:19;100384.91;;;1.19;100.00
49945;BME280;35838;49.134;9.212;2023-12-07T04:30:55;100385.78;;;1.19;100.00
49945;BME280;35838;49.134;9.212;2023-12-07T04:32:26;100387.97;;;1.10;100.00
49945;BME280;35838;49.134;9.212;2023-12-07T04:33:59;100389.09;;;1.17;100.00
49945;BME280;35838;49.134;9.212;2023-12-07T04:35:30;100399.44;;;1.20;100.00
49945;BME280;35838;49.134;9.212;2023-12-07T04:37:04;100387.59;;;1.22;100.00
49945;BME280;35838;49.134;9.212;2023-12-07T04:38:38;100387.41;;;1.17;100.00
49945;BME280;35838;49.134;9.212;2023-12-07T04:40:09;100397.09;;;1.24;100.00
49945;BME280;35838;49.134;9.212;2023-12-07T04:41:43;100396.19;;;1.24;100.00
49945;BME280;35838;49.134;9.212;2023-12-07T04:43:14;100403.69;;;1.19;100.00
49945;BME280;35838;49.134;9.212;2023-12-07T04:44:48;100395.81;;;1.15;100.00
49945;BME280;35838;49.134;9.212;2023-12-07T04:46:22;100398.06;;;1.07;100.00
49945;BME280;35838;49.134;9.212;2023-12-07T04:47:55;100403.19;;;1.07;100.00
49945;BME280;35838;49.134;9.212;2023-12-07T04:49:27;100398.13;;;1.08;100.00
49945;BME280;35838;49.134;9.212;2023-12-07T04:51:01;100401.56;;;1.09;100.00
49945;BME280;35838;49.134;9.212;2023-12-07T04:52:35;100400.75;;;1.10;100.00
49945;BME280;35838;49.134;9.212;2023-12-07T04:54:06;100400.88;;;1.13;100.00
49945;BME280;35838;49.134;9.212;2023-12-07T04:55:39;100398.19;;;1.10;100.00
49945;BME280;35838;49.134;9.212;2023-12-07T04:57:10;100395.44;;;1.05;100.00
49945;BME280;35838;49.134;9.212;2023-12-07T04:58:44;100395.16;;;0.99;100.00
49945;BME280;35838;49.134;9.212;2023-12-07T05:00:15;100399.53;;;1.02;100.00
49945;BME280;35838;49.134;9.212;2023-12-07T05:01:51;100400.47;;;1.04;100.00
49945;BME280;35838;49.134;9.212;2023-12-07T05:03:23;100401.38;;;1.04;100.00
49945;BME280;35838;49.134;9.212;2023-12-07T05:04:57;100402.44;;;1.09;100.00
49945;BME280;35838;49.134;9.212;2023-12-07T05:06:28;100400.81;;;1.12;100.00
49945;BME280;35838;49.134;9.212;2023-12-07T05:08:01;100403.47;;;1.15;100.00
49945;BME280;35838;49.134;9.212;2023-12-07T05:09:32;100402.06;;;1.21;100.00
49945;BME280;35838;49.134;9.212;2023-12-07T05:11:06;100409.69;;;1.20;100.00
49945;BME280;35838;49.134;9.212;2023-12-07T05:12:37;100408.94;;;1.22;100.00
49945;BME280;35838;49.134;9.212;2023-12-07T05:14:11;100408.25;;;1.27;100.00
49945;BME280;35838;49.134;9.212;2023-12-07T05:15:42;100402.06;;;1.21;100.00
49945;BME280;35838;49.134;9.212;2023-12-07T05:17:19;100410.53;;;1.20;100.00
49945;BME280;35838;49.134;9.212;2023-12-07T05:18:51;100401.94;;;1.18;100.00
49945;BME280;35838;49.134;9.212;2023-12-07T05:20:26;100406.88;;;1.14;100.00
49945;BME280;35838;49.134;9.212;2023-12-07T05:21:58;100402.38;;;1.08;100.00
49945;BME280;35838;49.134;9.212;2023-12-07T05:23:33;100402.56;;;1.13;100.00
49945;BME280;35838;49.134;9.212;2023-12-07T05:25:07;100410.03;;;1.08;100.00
49945;BME280;35838;49.134;9.212;2023-12-07T05:26:40;100410.84;;;0.87;100.00
49945;BME280;35838;49.134;9.212;2023-12-07T05:28:11;100409.84;;;0.84;100.00
49945;BME280;35838;49.134;9.212;2023-12-07T05:29:45;100416.16;;;0.92;100.00
49945;BME280;35838;49.134;9.212;2023-12-07T05:31:16;100413.19;;;1.02;100.00
49945;BME280;35838;49.134;9.212;2023-12-07T05:32:53;100418.25;;;1.01;100.00
49945;BME280;35838;49.134;9.212;2023-12-07T05:34:24;100419.13;;;1.01;100.00
49945;BME280;35838;49.134;9.212;2023-12-07T05:35:57;100419.25;;;1.04;100.00
49945;BME280;35838;49.134;9.212;2023-12-07T05:37:29;100420.47;;;0.93;100.00
49945;BME280;35838;49.134;9.212;2023-12-07T05:39:02;100432.19;;;0.88;100.00
49945;BME280;35838;49.134;9.212;2023-12-07T05:40:35;100417.66;;;0.87;100.00
49945;BME280;35838;49.134;9.212;2023-12-07T05:42:09;100432.31;;;0.91;100.00
49945;BME280;35838;49.134;9.212;2023-12-07T05:43:40;100425.66;;;0.94;100.00
49945;BME280;35838;49.134;9.212;2023-12-07T05:45:14;100427.34;;;0.94;100.00
49945;BME280;35838;49.134;9.212;2023-12-07T05:46:45;100425.84;;;0.99;100.00
49945;BME280;35838;49.134;9.212;2023-12-07T05:48:21;100426.03;;;1.04;100.00
49945;BME280;35838;49.134;9.212;2023-12-07T05:49:52;100430.97;;;0.99;100.00
49945;BME280;35838;49.134;9.212;2023-12-07T05:51:28;100421.47;;;0.97;100.00
49945;BME280;35838;49.134;9.212;2023-12-07T05:52:59;100425.38;;;0.88;100.00
49945;BME280;35838;49.134;9.212;2023-12-07T05:54:34;100419.28;;;0.85;100.00
49945;BME280;35838;49.134;9.212;2023-12-07T05:56:05;100421.78;;;0.83;100.00
49945;BME280;35838;49.134;9.212;2023-12-07T05:57:38;100421.81;;;0.85;100.00
49945;BME280;35838;49.134;9.212;2023-12-07T05:59:12;100417.47;;;0.82;100.00
49945;BME280;35838;49.134;9.212;2023-12-07T06:00:43;100419.22;;;0.83;100.00
49945;BME280;35838;49.134;9.212;2023-12-07T06:02:17;100416.78;;;0.67;100.00
49945;BME280;35838;49.134;9.212;2023-12-07T06:03:51;100417.44;;;0.62;100.00
49945;BME280;35838;49.134;9.212;2023-12-07T06:05:24;100413.41;;;0.68;100.00
49945;BME280;35838;49.134;9.212;2023-12-07T06:06:55;100425.69;;;0.75;100.00
49945;BME280;35838;49.134;9.212;2023-12-07T06:08:29;100425.69;;;0.75;100.00
49945;BME280;35838;49.134;9.212;2023-12-07T06:10:00;100423.28;;;0.80;100.00
49945;BME280;35838;49.134;9.212;2023-12-07T06:11:36;100430.28;;;0.84;100.00
49945;BME280;35838;49.134;9.212;2023-12-07T06:13:07;100428.59;;;0.84;100.00
49945;BME280;35838;49.134;9.212;2023-12-07T06:14:41;100427.94;;;0.88;100.00
49945;BME280;35838;49.134;9.212;2023-12-07T06:16:12;100426.59;;;0.97;100.00
49945;BME280;35838;49.134;9.212;2023-12-07T06:17:48;100428.81;;;0.89;100.00
49945;BME280;35838;49.134;9.212;2023-12-07T06:19:21;100430.25;;;0.82;100.00
49945;BME280;35838;49.134;9.212;2023-12-07T06:20:55;100433.00;;;0.87;100.00
49945;BME280;35838;49.134;9.212;2023-12-07T06:22:26;100432.00;;;0.83;100.00
49945;BME280;35838;49.134;9.212;2023-12-07T06:24:00;100434.41;;;0.80;100.00
49945;BME280;35838;49.134;9.212;2023-12-07T06:25:31;100425.78;;;0.78;100.00
49945;BME280;35838;49.134;9.212;2023-12-07T06:27:04;100429.25;;;0.78;100.00
49945;BME280;35838;49.134;9.212;2023-12-07T06:28:35;100429.25;;;0.78;100.00
49945;BME280;35838;49.134;9.212;2023-12-07T06:30:09;100431.09;;;0.83;100.00
49945;BME280;35838;49.134;9.212;2023-12-07T06:31:42;100432.50;;;0.96;100.00
49945;BME280;35838;49.134;9.212;2023-12-07T06:33:16;100426.44;;;0.93;100.00
49945;BME280;35838;49.134;9.212;2023-12-07T06:34:50;100427.00;;;0.86;100.00
49945;BME280;35838;49.134;9.212;2023-12-07T06:36:24;100429.56;;;0.86;100.00
49945;BME280;35838;49.134;9.212;2023-12-07T06:37:56;100426.88;;;0.83;100.00
49945;BME280;35838;49.134;9.212;2023-12-07T06:39:30;100422.44;;;0.79;100.00
49945;BME280;35838;49.134;9.212;2023-12-07T06:41:01;100422.56;;;0.82;100.00
49945;BME280;35838;49.134;9.212;2023-12-07T06:42:34;100421.38;;;0.74;100.00
49945;BME280;35838;49.134;9.212;2023-12-07T06:44:06;100423.78;;;0.71;100.00
49945;BME280;35838;49.134;9.212;2023-12-07T06:45:39;100419.31;;;0.67;100.00
49945;BME280;35838;49.134;9.212;2023-12-07T06:47:10;100422.09;;;0.71;100.00
49945;BME280;35838;49.134;9.212;2023-12-07T06:48:44;100423.03;;;0.73;100.00
49945;BME280;35838;49.134;9.212;2023-12-07T06:50:17;100425.53;;;0.72;100.00
49945;BME280;35838;49.134;9.212;2023-12-07T06:51:51;100425.69;;;0.75;100.00
49945;BME280;35838;49.134;9.212;2023-12-07T06:53:23;100431.03;;;0.81;100.00
49945;BME280;35838;49.134;9.212;2023-12-07T06:54:56;100432.84;;;0.84;100.00
49945;BME280;35838;49.134;9.212;2023-12-07T06:56:28;100433.06;;;0.88;100.00
49945;BME280;35838;49.134;9.212;2023-12-07T06:58:02;100425.94;;;0.81;100.00
49945;BME280;35838;49.134;9.212;2023-12-07T06:59:33;100436.00;;;0.78;100.00
49945;BME280;35838;49.134;9.212;2023-12-07T07:01:06;100436.06;;;0.80;100.00
49945;BME280;35838;49.134;9.212;2023-12-07T07:02:37;100430.03;;;0.77;100.00
49945;BME280;35838;49.134;9.212;2023-12-07T07:04:11;100425.78;;;0.78;100.00
49945;BME280;35838;49.134;9.212;2023-12-07T07:05:45;100424.31;;;0.83;100.00
49945;BME280;35838;49.134;9.212;2023-12-07T07:07:18;100425.03;;;0.81;100.00
49945;BME280;35838;49.134;9.212;2023-12-07T07:08:49;100427.28;;;0.73;100.00
49945;BME280;35838;49.134;9.212;2023-12-07T07:10:23;100427.28;;;0.73;100.00
49945;BME280;35838;49.134;9.212;2023-12-07T07:11:55;100435.91;;;0.75;100.00
49945;BME280;35838;49.134;9.212;2023-12-07T07:13:28;100428.34;;;0.78;100.00
49945;BME280;35838;49.134;9.212;2023-12-07T07:15:00;100437.50;;;0.73;100.00
49945;BME280;35838;49.134;9.212;2023-12-07T07:16:33;100435.47;;;0.85;100.00
49945;BME280;35838;49.134;9.212;2023-12-07T07:18:04;100441.59;;;0.89;100.00
49945;BME280;35838;49.134;9.212;2023-12-07T07:19:38;100440.72;;;0.88;100.00
49945;BME280;35838;49.134;9.212;2023-12-07T07:21:12;100438.63;;;0.80;100.00
49945;BME280;35838;49.134;9.212;2023-12-07T07:24:41;100436.16;;;0.81;100.00
49945;BME280;35838;49.134;9.212;2023-12-07T07:26:13;100437.91;;;0.82;100.00
49945;BME280;35838;49.134;9.212;2023-12-07T07:27:48;100438.16;;;0.88;100.00
49945;BME280;35838;49.134;9.212;2023-12-07T07:29:19;100432.19;;;0.88;100.00
49945;BME280;35838;49.134;9.212;2023-12-07T07:30:52;100434.81;;;0.89;100.00
49945;BME280;35838;49.134;9.212;2023-12-07T07:32:24;100431.31;;;0.87;100.00
49945;BME280;35838;49.134;9.212;2023-12-07T07:33:57;100441.66;;;0.90;100.00
49945;BME280;35838;49.134;9.212;2023-12-07T07:35:28;100424.31;;;0.83;100.00
49945;BME280;35838;49.134;9.212;2023-12-07T07:37:05;100425.03;;;0.81;100.00
49945;BME280;35838;49.134;9.212;2023-12-07T07:38:37;100429.56;;;0.86;100.00
49945;BME280;35838;49.134;9.212;2023-12-07T07:40:11;100427.09;;;0.88;100.00
49945;BME280;35838;49.134;9.212;2023-12-07T07:41:42;100434.81;;;0.89;100.00
49945;BME280;35838;49.134;9.212;2023-12-07T07:43:16;100439.16;;;0.92;100.00
49945;BME280;35838;49.134;9.212;2023-12-07T07:44:47;100440.19;;;0.96;100.00
49945;BME280;35838;49.134;9.212;2023-12-07T07:46:21;100444.09;;;1.07;100.00
49945;BME280;35838;49.134;9.212;2023-12-07T07:47:52;100433.06;;;1.08;100.00
49945;BME280;35838;49.134;9.212;2023-12-07T07:49:27;100445.84;;;1.08;100.00
49945;BME280;35838;49.134;9.212;2023-12-07T07:50:58;100445.69;;;1.05;100.00
49945;BME280;35838;49.134;9.212;2023-12-07T07:52:36;100447.31;;;1.03;100.00
49945;BME280;35838;49.134;9.212;2023-12-07T07:54:07;100453.97;;;0.99;100.00
49945;BME280;35838;49.134;9.212;2023-12-07T07:55:40;100454.72;;;0.97;100.00
49945;BME280;35838;49.134;9.212;2023-12-07T07:57:13;100449.66;;;0.98;100.00
49945;BME280;35838;49.134;9.212;2023-12-07T07:58:47;100457.91;;;1.12;100.00
49945;BME280;35838;49.134;9.212;2023-12-07T08:00:18;100459.28;;;1.23;100.00
49945;BME280;35838;49.134;9.212;2023-12-07T08:01:51;100458.22;;;1.18;100.00
49945;BME280;35838;49.134;9.212;2023-12-07T08:03:22;100455.97;;;1.26;100.00
49945;BME280;35838;49.134;9.212;2023-12-07T08:04:56;100451.84;;;1.30;100.00
49945;BME280;35838;49.134;9.212;2023-12-07T08:06:27;100457.97;;;1.33;100.00
49945;BME280;35838;49.134;9.212;2023-12-07T08:08:03;100460.47;;;1.32;100.00